sensor_id;sensor_type;location;lat;lon;timestamp;P1;durP1;ratioP1;P2;durP2;ratioP2
66567;SDS011;53422;49.296;6.900;2023-06-19T00:01:00;6.15;;;4.63;;
66567;SDS011;53422;49.296;6.900;2023-06-19T00:03:26;5.70;;;4.28;;
66567;SDS011;53422;49.296;6.900;2023-06-19T00:05:51;5.32;;;3.60;;
66567;SDS011;53422;49.296;6.900;2023-06-19T00:08:17;5.65;;;3.97;;
66567;SDS011;53422;49.296;6.900;2023-06-19T00:10:42;5.53;;;3.35;;
66567;SDS011;53422;49.296;6.900;2023-06-19T00:13:08;4.07;;;3.00;;
66567;SDS011;53422;49.296;6.900;2023-06-19T00:15:33;6.68;;;3.85;;
66567;SDS011;53422;49.296;6.900;2023-06-19T00:17:59;5.65;;;3.35;;
66567;SDS011;53422;49.296;6.900;2023-06-19T00:20:25;5.88;;;4.43;;
66567;SDS011;53422;49.296;6.900;2023-06-19T00:22:53;6.55;;;4.68;;
66567;SDS011;53422;49.296;6.900;2023-06-19T00:25:19;6.35;;;3.58;;
66567;SDS011;53422;49.296;6.900;2023-06-19T00:27:47;12.90;;;5.13;;
66567;SDS011;53422;49.296;6.900;2023-06-19T00:30:13;7.45;;;3.67;;
66567;SDS011;53422;49.296;6.900;2023-06-19T00:32:39;5.78;;;4.43;;
66567;SDS011;53422;49.296;6.900;2023-06-19T00:35:15;5.55;;;4.20;;
66567;SDS011;53422;49.296;6.900;2023-06-19T00:37:43;6.68;;;3.97;;
66567;SDS011;53422;49.296;6.900;2023-06-19T00:40:27;8.45;;;4.45;;
66567;SDS011;53422;49.296;6.900;2023-06-19T00:42:55;6.97;;;4.13;;
66567;SDS011;53422;49.296;6.900;2023-06-19T00:45:20;6.00;;;4.20;;
66567;SDS011;53422;49.296;6.900;2023-06-19T00:47:46;7.13;;;3.78;;
66567;SDS011;53422;49.296;6.900;2023-06-19T00:50:15;5.72;;;3.78;;
66567;SDS011;53422;49.296;6.900;2023-06-19T00:52:41;5.95;;;3.58;;
66567;SDS011;53422;49.296;6.900;2023-06-19T00:55:07;5.25;;;3.72;;
66567;SDS011;53422;49.296;6.900;2023-06-19T00:57:36;5.55;;;3.80;;
66567;SDS011;53422;49.296;6.900;2023-06-19T01:00:02;5.72;;;4.20;;
66567;SDS011;53422;49.296;6.900;2023-06-19T01:02:40;8.98;;;3.83;;
66567;SDS011;53422;49.296;6.900;2023-06-19T01:05:06;7.15;;;3.55;;
66567;SDS011;53422;49.296;6.900;2023-06-19T01:10:24;4.95;;;3.47;;
66567;SDS011;53422;49.296;6.900;2023-06-19T01:13:06;4.97;;;3.33;;
66567;SDS011;53422;49.296;6.900;2023-06-19T01:15:37;5.35;;;3.85;;
66567;SDS011;53422;49.296;6.900;2023-06-19T01:18:11;5.97;;;3.63;;
66567;SDS011;53422;49.296;6.900;2023-06-19T01:20:37;5.50;;;3.45;;
66567;SDS011;53422;49.296;6.900;2023-06-19T01:23:09;4.38;;;2.85;;
66567;SDS011;53422;49.296;6.900;2023-06-19T01:25:36;6.07;;;3.28;;
66567;SDS011;53422;49.296;6.900;2023-06-19T01:28:03;5.75;;;3.20;;
66567;SDS011;53422;49.296;6.900;2023-06-19T01:30:34;5.22;;;2.90;;
66567;SDS011;53422;49.296;6.900;2023-06-19T01:33:12;5.28;;;2.72;;
66567;SDS011;53422;49.296;6.900;2023-06-19T01:35:43;4.05;;;2.83;;
66567;SDS011;53422;49.296;6.900;2023-06-19T01:38:11;5.38;;;2.70;;
66567;SDS011;53422;49.296;6.900;2023-06-19T01:40:38;4.93;;;3.30;;
66567;SDS011;53422;49.296;6.900;2023-06-19T01:43:05;4.50;;;2.40;;
66567;SDS011;53422;49.296;6.900;2023-06-19T01:45:32;5.03;;;2.92;;
66567;SDS011;53422;49.296;6.900;2023-06-19T01:47:58;4.35;;;2.65;;
66567;SDS011;53422;49.296;6.900;2023-06-19T01:50:24;4.35;;;2.38;;
66567;SDS011;53422;49.296;6.900;2023-06-19T01:52:50;5.13;;;2.53;;
66567;SDS011;53422;49.296;6.900;2023-06-19T01:55:16;4.82;;;2.60;;
66567;SDS011;53422;49.296;6.900;2023-06-19T01:57:42;3.97;;;2.88;;
66567;SDS011;53422;49.296;6.900;2023-06-19T02:00:08;3.80;;;2.28;;
66567;SDS011;53422;49.296;6.900;2023-06-19T02:02:36;3.20;;;2.20;;
66567;SDS011;53422;49.296;6.900;2023-06-19T02:05:02;5.65;;;3.15;;
66567;SDS011;53422;49.296;6.900;2023-06-19T02:07:28;5.15;;;2.55;;
66567;SDS011;53422;49.296;6.900;2023-06-19T02:09:53;4.38;;;2.47;;
66567;SDS011;53422;49.296;6.900;2023-06-19T02:12:19;4.65;;;2.40;;
66567;SDS011;53422;49.296;6.900;2023-06-19T02:14:45;5.63;;;2.85;;
66567;SDS011;53422;49.296;6.900;2023-06-19T02:17:10;6.68;;;2.13;;
66567;SDS011;53422;49.296;6.900;2023-06-19T02:19:36;4.00;;;2.22;;
66567;SDS011;53422;49.296;6.900;2023-06-19T02:22:02;5.60;;;3.00;;
66567;SDS011;53422;49.296;6.900;2023-06-19T02:24:30;3.05;;;2.13;;
66567;SDS011;53422;49.296;6.900;2023-06-19T02:26:56;4.38;;;2.10;;
66567;SDS011;53422;49.296;6.900;2023-06-19T02:29:22;4.00;;;2.15;;
66567;SDS011;53422;49.296;6.900;2023-06-19T02:31:47;4.20;;;2.60;;
66567;SDS011;53422;49.296;6.900;2023-06-19T02:34:13;4.60;;;2.90;;
66567;SDS011;53422;49.296;6.900;2023-06-19T02:36:39;4.50;;;2.70;;
66567;SDS011;53422;49.296;6.900;2023-06-19T02:39:05;6.38;;;2.78;;
66567;SDS011;53422;49.296;6.900;2023-06-19T02:41:31;4.40;;;2.50;;
66567;SDS011;53422;49.296;6.900;2023-06-19T02:43:57;4.60;;;2.90;;
66567;SDS011;53422;49.296;6.900;2023-06-19T02:46:23;4.95;;;2.30;;
66567;SDS011;53422;49.296;6.900;2023-06-19T02:48:48;4.03;;;2.38;;
66567;SDS011;53422;49.296;6.900;2023-06-19T02:51:14;3.65;;;2.25;;
66567;SDS011;53422;49.296;6.900;2023-06-19T02:53:39;4.25;;;2.40;;
66567;SDS011;53422;49.296;6.900;2023-06-19T02:56:06;3.92;;;2.10;;
66567;SDS011;53422;49.296;6.900;2023-06-19T02:58:32;5.53;;;2.75;;
66567;SDS011;53422;49.296;6.900;2023-06-19T03:00:59;4.38;;;2.70;;
66567;SDS011;53422;49.296;6.900;2023-06-19T03:03:25;3.75;;;2.00;;
66567;SDS011;53422;49.296;6.900;2023-06-19T03:05:51;4.28;;;3.17;;
66567;SDS011;53422;49.296;6.900;2023-06-19T03:08:16;5.25;;;2.75;;
66567;SDS011;53422;49.296;6.900;2023-06-19T03:10:42;5.88;;;2.85;;
66567;SDS011;53422;49.296;6.900;2023-06-19T03:13:07;4.75;;;2.72;;
66567;SDS011;53422;49.296;6.900;2023-06-19T03:15:33;5.65;;;3.00;;
66567;SDS011;53422;49.296;6.900;2023-06-19T03:17:58;4.35;;;2.70;;
66567;SDS011;53422;49.296;6.900;2023-06-19T03:20:35;6.38;;;2.60;;
66567;SDS011;53422;49.296;6.900;2023-06-19T03:23:04;6.82;;;2.72;;
66567;SDS011;53422;49.296;6.900;2023-06-19T03:25:29;4.57;;;2.83;;
66567;SDS011;53422;49.296;6.900;2023-06-19T03:28:00;4.25;;;2.72;;
66567;SDS011;53422;49.296;6.900;2023-06-19T03:30:27;5.35;;;3.10;;
66567;SDS011;53422;49.296;6.900;2023-06-19T03:32:55;5.05;;;3.38;;
66567;SDS011;53422;49.296;6.900;2023-06-19T03:35:21;5.60;;;2.92;;
66567;SDS011;53422;49.296;6.900;2023-06-19T03:37:49;5.90;;;3.38;;
66567;SDS011;53422;49.296;6.900;2023-06-19T03:40:15;5.45;;;3.20;;
66567;SDS011;53422;49.296;6.900;2023-06-19T03:42:40;4.43;;;3.28;;
66567;SDS011;53422;49.296;6.900;2023-06-19T03:45:06;6.13;;;3.30;;
66567;SDS011;53422;49.296;6.900;2023-06-19T03:47:32;5.28;;;3.40;;
66567;SDS011;53422;49.296;6.900;2023-06-19T03:49:58;4.28;;;2.85;;
66567;SDS011;53422;49.296;6.900;2023-06-19T03:52:23;5.47;;;3.20;;
66567;SDS011;53422;49.296;6.900;2023-06-19T03:54:49;6.28;;;2.88;;
66567;SDS011;53422;49.296;6.900;2023-06-19T03:57:15;6.65;;;3.30;;
66567;SDS011;53422;49.296;6.900;2023-06-19T03:59:40;4.65;;;2.63;;
66567;SDS011;53422;49.296;6.900;2023-06-19T04:02:09;5.60;;;3.75;;
66567;SDS011;53422;49.296;6.900;2023-06-19T04:04:34;6.25;;;3.15;;
66567;SDS011;53422;49.296;6.900;2023-06-19T04:07:00;5.10;;;3.05;;
66567;SDS011;53422;49.296;6.900;2023-06-19T04:09:25;6.45;;;3.40;;
66567;SDS011;53422;49.296;6.900;2023-06-19T04:11:51;4.22;;;2.90;;
66567;SDS011;53422;49.296;6.900;2023-06-19T04:14:16;5.18;;;3.05;;
66567;SDS011;53422;49.296;6.900;2023-06-19T04:16:42;5.47;;;3.25;;
66567;SDS011;53422;49.296;6.900;2023-06-19T04:19:08;6.53;;;3.20;;
66567;SDS011;53422;49.296;6.900;2023-06-19T04:21:36;7.07;;;2.80;;
66567;SDS011;53422;49.296;6.900;2023-06-19T04:24:01;5.85;;;3.50;;
66567;SDS011;53422;49.296;6.900;2023-06-19T04:26:32;4.93;;;3.33;;
66567;SDS011;53422;49.296;6.900;2023-06-19T04:28:58;5.45;;;3.67;;
66567;SDS011;53422;49.296;6.900;2023-06-19T04:33:51;6.72;;;3.22;;
66567;SDS011;53422;49.296;6.900;2023-06-19T04:36:20;6.43;;;2.65;;
66567;SDS011;53422;49.296;6.900;2023-06-19T04:38:45;5.63;;;3.03;;
66567;SDS011;53422;49.296;6.900;2023-06-19T04:41:11;5.63;;;3.08;;
66567;SDS011;53422;49.296;6.900;2023-06-19T04:43:36;5.70;;;3.63;;
66567;SDS011;53422;49.296;6.900;2023-06-19T04:46:02;6.30;;;3.03;;
66567;SDS011;53422;49.296;6.900;2023-06-19T04:48:29;5.20;;;2.83;;
66567;SDS011;53422;49.296;6.900;2023-06-19T04:50:54;5.07;;;3.10;;
66567;SDS011;53422;49.296;6.900;2023-06-19T04:53:21;6.50;;;3.45;;
66567;SDS011;53422;49.296;6.900;2023-06-19T04:55:46;5.82;;;4.03;;
66567;SDS011;53422;49.296;6.900;2023-06-19T04:58:12;4.57;;;3.40;;
66567;SDS011;53422;49.296;6.900;2023-06-19T05:00:38;6.15;;;3.38;;
66567;SDS011;53422;49.296;6.900;2023-06-19T05:03:03;5.85;;;3.95;;
66567;SDS011;53422;49.296;6.900;2023-06-19T05:05:29;6.45;;;3.50;;
66567;SDS011;53422;49.296;6.900;2023-06-19T05:07:54;5.55;;;3.60;;
66567;SDS011;53422;49.296;6.900;2023-06-19T05:10:20;5.65;;;3.13;;
66567;SDS011;53422;49.296;6.900;2023-06-19T05:12:46;5.63;;;3.45;;
66567;SDS011;53422;49.296;6.900;2023-06-19T05:15:11;7.30;;;3.45;;
66567;SDS011;53422;49.296;6.900;2023-06-19T05:17:37;4.97;;;4.28;;
66567;SDS011;53422;49.296;6.900;2023-06-19T05:20:04;5.47;;;3.20;;
66567;SDS011;53422;49.296;6.900;2023-06-19T05:22:32;6.22;;;3.53;;
66567;SDS011;53422;49.296;6.900;2023-06-19T05:24:59;7.15;;;3.90;;
66567;SDS011;53422;49.296;6.900;2023-06-19T05:27:25;4.78;;;3.08;;
66567;SDS011;53422;49.296;6.900;2023-06-19T05:29:50;4.88;;;2.47;;
66567;SDS011;53422;49.296;6.900;2023-06-19T05:32:16;6.22;;;3.33;;
66567;SDS011;53422;49.296;6.900;2023-06-19T05:34:42;5.00;;;3.58;;
66567;SDS011;53422;49.296;6.900;2023-06-19T05:37:07;4.28;;;2.90;;
66567;SDS011;53422;49.296;6.900;2023-06-19T05:39:33;4.47;;;3.63;;
66567;SDS011;53422;49.296;6.900;2023-06-19T05:42:01;5.63;;;2.75;;
66567;SDS011;53422;49.296;6.900;2023-06-19T05:44:27;5.25;;;2.35;;
66567;SDS011;53422;49.296;6.900;2023-06-19T05:46:52;3.70;;;2.10;;
66567;SDS011;53422;49.296;6.900;2023-06-19T05:49:18;5.82;;;3.05;;
66567;SDS011;53422;49.296;6.900;2023-06-19T05:51:46;3.17;;;2.17;;
66567;SDS011;53422;49.296;6.900;2023-06-19T05:54:14;5.45;;;2.40;;
66567;SDS011;53422;49.296;6.900;2023-06-19T05:56:42;6.93;;;2.63;;
66567;SDS011;53422;49.296;6.900;2023-06-19T05:59:08;4.88;;;3.00;;
66567;SDS011;53422;49.296;6.900;2023-06-19T06:01:33;4.47;;;2.30;;
66567;SDS011;53422;49.296;6.900;2023-06-19T06:03:59;5.18;;;2.30;;
66567;SDS011;53422;49.296;6.900;2023-06-19T06:06:26;3.97;;;2.20;;
66567;SDS011;53422;49.296;6.900;2023-06-19T06:08:55;4.57;;;2.60;;
66567;SDS011;53422;49.296;6.900;2023-06-19T06:11:21;5.07;;;3.03;;
66567;SDS011;53422;49.296;6.900;2023-06-19T06:13:47;4.03;;;2.53;;
66567;SDS011;53422;49.296;6.900;2023-06-19T06:16:12;5.97;;;2.47;;
66567;SDS011;53422;49.296;6.900;2023-06-19T06:18:41;4.72;;;2.78;;
66567;SDS011;53422;49.296;6.900;2023-06-19T06:21:06;3.50;;;2.28;;
66567;SDS011;53422;49.296;6.900;2023-06-19T06:23:35;4.20;;;2.88;;
66567;SDS011;53422;49.296;6.900;2023-06-19T06:26:00;7.38;;;2.58;;
66567;SDS011;53422;49.296;6.900;2023-06-19T06:28:27;3.45;;;2.55;;
66567;SDS011;53422;49.296;6.900;2023-06-19T06:30:53;4.15;;;2.50;;
66567;SDS011;53422;49.296;6.900;2023-06-19T06:33:23;5.10;;;2.45;;
66567;SDS011;53422;49.296;6.900;2023-06-19T06:35:49;3.20;;;1.88;;
66567;SDS011;53422;49.296;6.900;2023-06-19T06:38:14;6.65;;;2.25;;
66567;SDS011;53422;49.296;6.900;2023-06-19T06:40:40;4.10;;;2.60;;
66567;SDS011;53422;49.296;6.900;2023-06-19T06:43:07;3.50;;;2.30;;
66567;SDS011;53422;49.296;6.900;2023-06-19T06:45:33;3.45;;;2.35;;
66567;SDS011;53422;49.296;6.900;2023-06-19T06:47:59;3.00;;;2.20;;
66567;SDS011;53422;49.296;6.900;2023-06-19T06:50:25;4.72;;;2.33;;
66567;SDS011;53422;49.296;6.900;2023-06-19T06:52:53;3.22;;;2.35;;
66567;SDS011;53422;49.296;6.900;2023-06-19T06:55:18;3.75;;;2.60;;
66567;SDS011;53422;49.296;6.900;2023-06-19T06:57:44;3.22;;;2.50;;
66567;SDS011;53422;49.296;6.900;2023-06-19T07:00:10;3.65;;;2.72;;
66567;SDS011;53422;49.296;6.900;2023-06-19T07:02:37;3.90;;;2.80;;
66567;SDS011;53422;49.296;6.900;2023-06-19T07:05:06;4.03;;;2.22;;
66567;SDS011;53422;49.296;6.900;2023-06-19T07:07:37;3.40;;;2.22;;
66567;SDS011;53422;49.296;6.900;2023-06-19T07:10:03;5.70;;;2.13;;
66567;SDS011;53422;49.296;6.900;2023-06-19T07:12:29;3.85;;;2.30;;
66567;SDS011;53422;49.296;6.900;2023-06-19T07:14:55;3.83;;;2.40;;
66567;SDS011;53422;49.296;6.900;2023-06-19T07:17:21;6.80;;;2.20;;
66567;SDS011;53422;49.296;6.900;2023-06-19T07:19:46;3.97;;;2.30;;
66567;SDS011;53422;49.296;6.900;2023-06-19T07:22:15;3.65;;;1.67;;
66567;SDS011;53422;49.296;6.900;2023-06-19T07:24:41;4.72;;;2.40;;
66567;SDS011;53422;49.296;6.900;2023-06-19T07:27:06;5.00;;;2.00;;
66567;SDS011;53422;49.296;6.900;2023-06-19T07:29:32;3.67;;;2.50;;
66567;SDS011;53422;49.296;6.900;2023-06-19T07:32:00;3.22;;;2.10;;
66567;SDS011;53422;49.296;6.900;2023-06-19T07:34:27;5.72;;;2.00;;
66567;SDS011;53422;49.296;6.900;2023-06-19T07:36:56;4.32;;;2.10;;
66567;SDS011;53422;49.296;6.900;2023-06-19T07:39:21;3.97;;;2.30;;
66567;SDS011;53422;49.296;6.900;2023-06-19T07:41:47;4.47;;;2.13;;
66567;SDS011;53422;49.296;6.900;2023-06-19T07:44:13;4.45;;;2.20;;
66567;SDS011;53422;49.296;6.900;2023-06-19T07:46:38;2.90;;;2.28;;
66567;SDS011;53422;49.296;6.900;2023-06-19T07:49:04;2.70;;;1.50;;
66567;SDS011;53422;49.296;6.900;2023-06-19T07:51:29;2.85;;;2.10;;
66567;SDS011;53422;49.296;6.900;2023-06-19T07:53:55;4.03;;;2.25;;
66567;SDS011;53422;49.296;6.900;2023-06-19T07:56:21;4.05;;;2.22;;
66567;SDS011;53422;49.296;6.900;2023-06-19T07:58:46;3.55;;;2.00;;
66567;SDS011;53422;49.296;6.900;2023-06-19T08:01:12;3.75;;;2.03;;
66567;SDS011;53422;49.296;6.900;2023-06-19T08:03:38;3.45;;;1.88;;
66567;SDS011;53422;49.296;6.900;2023-06-19T08:06:03;3.30;;;2.97;;
66567;SDS011;53422;49.296;6.900;2023-06-19T08:08:29;3.90;;;2.15;;
66567;SDS011;53422;49.296;6.900;2023-06-19T08:10:54;2.38;;;1.88;;
66567;SDS011;53422;49.296;6.900;2023-06-19T08:13:20;2.88;;;2.08;;
66567;SDS011;53422;49.296;6.900;2023-06-19T08:15:45;3.35;;;2.22;;
66567;SDS011;53422;49.296;6.900;2023-06-19T08:18:11;3.78;;;2.25;;
66567;SDS011;53422;49.296;6.900;2023-06-19T08:20:37;4.25;;;1.92;;
66567;SDS011;53422;49.296;6.900;2023-06-19T08:23:02;2.72;;;2.17;;
66567;SDS011;53422;49.296;6.900;2023-06-19T08:25:28;3.05;;;1.98;;
66567;SDS011;53422;49.296;6.900;2023-06-19T08:27:56;3.78;;;1.85;;
66567;SDS011;53422;49.296;6.900;2023-06-19T08:30:22;3.55;;;2.58;;
66567;SDS011;53422;49.296;6.900;2023-06-19T08:32:48;2.70;;;1.73;;
66567;SDS011;53422;49.296;6.900;2023-06-19T08:35:14;4.38;;;2.40;;
66567;SDS011;53422;49.296;6.900;2023-06-19T08:37:40;4.22;;;1.60;;
66567;SDS011;53422;49.296;6.900;2023-06-19T08:40:06;3.78;;;2.15;;
66567;SDS011;53422;49.296;6.900;2023-06-19T08:42:34;3.60;;;2.22;;
66567;SDS011;53422;49.296;6.900;2023-06-19T08:45:00;6.32;;;2.28;;
66567;SDS011;53422;49.296;6.900;2023-06-19T08:47:30;3.05;;;2.17;;
66567;SDS011;53422;49.296;6.900;2023-06-19T08:49:57;3.28;;;2.25;;
66567;SDS011;53422;49.296;6.900;2023-06-19T08:52:23;3.75;;;2.22;;
66567;SDS011;53422;49.296;6.900;2023-06-19T08:54:49;5.32;;;1.80;;
66567;SDS011;53422;49.296;6.900;2023-06-19T08:57:14;2.83;;;1.90;;
66567;SDS011;53422;49.296;6.900;2023-06-19T08:59:41;3.50;;;2.35;;
66567;SDS011;53422;49.296;6.900;2023-06-19T09:04:39;3.25;;;1.70;;
66567;SDS011;53422;49.296;6.900;2023-06-19T09:07:07;4.22;;;2.30;;
66567;SDS011;53422;49.296;6.900;2023-06-19T09:09:33;2.38;;;2.00;;
66567;SDS011;53422;49.296;6.900;2023-06-19T09:14:59;4.55;;;2.35;;
66567;SDS011;53422;49.296;6.900;2023-06-19T09:19:49;3.65;;;2.83;;
66567;SDS011;53422;49.296;6.900;2023-06-19T09:22:16;4.85;;;2.45;;
66567;SDS011;53422;49.296;6.900;2023-06-19T09:24:46;3.13;;;1.98;;
66567;SDS011;53422;49.296;6.900;2023-06-19T09:29:40;5.80;;;2.00;;
66567;SDS011;53422;49.296;6.900;2023-06-19T09:32:22;3.60;;;1.85;;
66567;SDS011;53422;49.296;6.900;2023-06-19T09:34:50;4.63;;;1.52;;
66567;SDS011;53422;49.296;6.900;2023-06-19T09:37:24;2.83;;;2.42;;
66567;SDS011;53422;49.296;6.900;2023-06-19T09:42:29;4.18;;;2.35;;
66567;SDS011;53422;49.296;6.900;2023-06-19T09:44:59;3.33;;;2.03;;
66567;SDS011;53422;49.296;6.900;2023-06-19T09:47:28;2.65;;;2.05;;
66567;SDS011;53422;49.296;6.900;2023-06-19T09:49:59;2.95;;;1.92;;
66567;SDS011;53422;49.296;6.900;2023-06-19T09:52:27;5.20;;;2.53;;
66567;SDS011;53422;49.296;6.900;2023-06-19T09:54:54;3.20;;;2.40;;
66567;SDS011;53422;49.296;6.900;2023-06-19T09:57:20;2.72;;;1.70;;
66567;SDS011;53422;49.296;6.900;2023-06-19T09:59:53;3.50;;;2.33;;
66567;SDS011;53422;49.296;6.900;2023-06-19T10:02:24;3.10;;;2.10;;
66567;SDS011;53422;49.296;6.900;2023-06-19T10:04:55;2.80;;;1.98;;
66567;SDS011;53422;49.296;6.900;2023-06-19T10:07:22;2.92;;;2.15;;
66567;SDS011;53422;49.296;6.900;2023-06-19T10:09:58;3.10;;;2.00;;
66567;SDS011;53422;49.296;6.900;2023-06-19T10:15:19;3.70;;;1.90;;
66567;SDS011;53422;49.296;6.900;2023-06-19T10:17:53;3.67;;;2.15;;
66567;SDS011;53422;49.296;6.900;2023-06-19T10:20:25;2.78;;;2.03;;
66567;SDS011;53422;49.296;6.900;2023-06-19T10:22:56;3.05;;;2.10;;
66567;SDS011;53422;49.296;6.900;2023-06-19T10:25:30;2.95;;;2.08;;
66567;SDS011;53422;49.296;6.900;2023-06-19T10:28:00;3.90;;;2.08;;
66567;SDS011;53422;49.296;6.900;2023-06-19T10:30:27;3.35;;;2.13;;
66567;SDS011;53422;49.296;6.900;2023-06-19T10:32:54;3.83;;;2.95;;
66567;SDS011;53422;49.296;6.900;2023-06-19T10:35:20;3.22;;;2.03;;
66567;SDS011;53422;49.296;6.900;2023-06-19T10:37:49;3.53;;;2.03;;
66567;SDS011;53422;49.296;6.900;2023-06-19T10:40:16;3.58;;;2.30;;
66567;SDS011;53422;49.296;6.900;2023-06-19T10:42:42;4.40;;;2.17;;
66567;SDS011;53422;49.296;6.900;2023-06-19T10:45:09;4.50;;;2.13;;
66567;SDS011;53422;49.296;6.900;2023-06-19T10:47:41;4.32;;;2.03;;
66567;SDS011;53422;49.296;6.900;2023-06-19T10:50:13;3.25;;;2.30;;
66567;SDS011;53422;49.296;6.900;2023-06-19T10:52:39;3.05;;;2.00;;
66567;SDS011;53422;49.296;6.900;2023-06-19T10:55:07;3.00;;;2.05;;
66567;SDS011;53422;49.296;6.900;2023-06-19T10:57:33;3.10;;;2.15;;
66567;SDS011;53422;49.296;6.900;2023-06-19T10:59:58;2.92;;;2.08;;
66567;SDS011;53422;49.296;6.900;2023-06-19T11:02:27;4.95;;;2.65;;
66567;SDS011;53422;49.296;6.900;2023-06-19T11:04:53;3.28;;;2.10;;
66567;SDS011;53422;49.296;6.900;2023-06-19T11:07:22;2.72;;;1.90;;
66567;SDS011;53422;49.296;6.900;2023-06-19T11:09:50;3.30;;;1.80;;
66567;SDS011;53422;49.296;6.900;2023-06-19T11:12:20;3.83;;;2.60;;
66567;SDS011;53422;49.296;6.900;2023-06-19T11:14:46;3.47;;;2.17;;
66567;SDS011;53422;49.296;6.900;2023-06-19T11:17:13;2.55;;;2.08;;
66567;SDS011;53422;49.296;6.900;2023-06-19T11:19:39;3.33;;;2.17;;
66567;SDS011;53422;49.296;6.900;2023-06-19T11:22:07;3.58;;;2.20;;
66567;SDS011;53422;49.296;6.900;2023-06-19T11:24:35;3.75;;;2.40;;
66567;SDS011;53422;49.296;6.900;2023-06-19T11:27:02;3.03;;;2.03;;
66567;SDS011;53422;49.296;6.900;2023-06-19T11:29:31;3.53;;;2.20;;
66567;SDS011;53422;49.296;6.900;2023-06-19T11:32:14;3.03;;;1.85;;
66567;SDS011;53422;49.296;6.900;2023-06-19T11:34:42;4.03;;;2.35;;
66567;SDS011;53422;49.296;6.900;2023-06-19T11:39:46;4.57;;;2.40;;
66567;SDS011;53422;49.296;6.900;2023-06-19T11:42:13;4.18;;;2.50;;
66567;SDS011;53422;49.296;6.900;2023-06-19T11:44:52;3.90;;;2.38;;
66567;SDS011;53422;49.296;6.900;2023-06-19T11:47:25;4.72;;;2.30;;
66567;SDS011;53422;49.296;6.900;2023-06-19T11:49:51;2.88;;;1.63;;
66567;SDS011;53422;49.296;6.900;2023-06-19T11:52:18;3.83;;;2.03;;
66567;SDS011;53422;49.296;6.900;2023-06-19T11:54:44;3.25;;;2.30;;
66567;SDS011;53422;49.296;6.900;2023-06-19T11:57:10;4.32;;;2.30;;
66567;SDS011;53422;49.296;6.900;2023-06-19T11:59:43;3.55;;;2.38;;
66567;SDS011;53422;49.296;6.900;2023-06-19T12:02:09;2.92;;;2.33;;
66567;SDS011;53422;49.296;6.900;2023-06-19T12:04:35;3.70;;;2.85;;
66567;SDS011;53422;49.296;6.900;2023-06-19T12:07:01;4.78;;;1.88;;
66567;SDS011;53422;49.296;6.900;2023-06-19T12:09:30;3.05;;;2.20;;
66567;SDS011;53422;49.296;6.900;2023-06-19T12:14:22;4.43;;;2.75;;
66567;SDS011;53422;49.296;6.900;2023-06-19T12:16:49;3.00;;;2.28;;
66567;SDS011;53422;49.296;6.900;2023-06-19T12:19:15;4.32;;;2.53;;
66567;SDS011;53422;49.296;6.900;2023-06-19T12:21:41;3.92;;;2.45;;
66567;SDS011;53422;49.296;6.900;2023-06-19T12:24:07;3.47;;;2.30;;
66567;SDS011;53422;49.296;6.900;2023-06-19T12:26:34;3.50;;;2.55;;
66567;SDS011;53422;49.296;6.900;2023-06-19T12:29:02;4.35;;;2.55;;
66567;SDS011;53422;49.296;6.900;2023-06-19T12:33:54;3.72;;;1.55;;
66567;SDS011;53422;49.296;6.900;2023-06-19T12:36:20;4.10;;;2.30;;
66567;SDS011;53422;49.296;6.900;2023-06-19T12:38:45;4.47;;;2.60;;
66567;SDS011;53422;49.296;6.900;2023-06-19T12:41:12;3.92;;;2.85;;
66567;SDS011;53422;49.296;6.900;2023-06-19T12:43:38;3.17;;;2.40;;
66567;SDS011;53422;49.296;6.900;2023-06-19T12:46:04;3.95;;;2.40;;
66567;SDS011;53422;49.296;6.900;2023-06-19T12:48:29;2.80;;;2.00;;
66567;SDS011;53422;49.296;6.900;2023-06-19T12:50:55;3.97;;;2.42;;
66567;SDS011;53422;49.296;6.900;2023-06-19T12:53:21;5.10;;;2.63;;
66567;SDS011;53422;49.296;6.900;2023-06-19T12:55:51;4.20;;;2.53;;
66567;SDS011;53422;49.296;6.900;2023-06-19T12:58:28;3.67;;;2.63;;
66567;SDS011;53422;49.296;6.900;2023-06-19T13:00:54;4.45;;;2.50;;
66567;SDS011;53422;49.296;6.900;2023-06-19T13:03:23;5.55;;;3.25;;
66567;SDS011;53422;49.296;6.900;2023-06-19T13:05:48;2.95;;;2.50;;
66567;SDS011;53422;49.296;6.900;2023-06-19T13:08:15;3.67;;;2.50;;
66567;SDS011;53422;49.296;6.900;2023-06-19T13:10:41;3.28;;;2.17;;
66567;SDS011;53422;49.296;6.900;2023-06-19T13:13:06;6.03;;;2.38;;
66567;SDS011;53422;49.296;6.900;2023-06-19T13:15:32;4.20;;;2.58;;
66567;SDS011;53422;49.296;6.900;2023-06-19T13:18:01;4.38;;;2.80;;
66567;SDS011;53422;49.296;6.900;2023-06-19T13:20:29;3.22;;;2.67;;
66567;SDS011;53422;49.296;6.900;2023-06-19T13:22:54;3.55;;;2.30;;
66567;SDS011;53422;49.296;6.900;2023-06-19T13:25:20;4.05;;;2.70;;
66567;SDS011;53422;49.296;6.900;2023-06-19T13:27:46;3.30;;;2.03;;
66567;SDS011;53422;49.296;6.900;2023-06-19T13:30:12;3.42;;;2.10;;
66567;SDS011;53422;49.296;6.900;2023-06-19T13:32:38;4.38;;;2.80;;
66567;SDS011;53422;49.296;6.900;2023-06-19T13:35:06;5.05;;;2.70;;
66567;SDS011;53422;49.296;6.900;2023-06-19T13:37:36;4.00;;;2.70;;
66567;SDS011;53422;49.296;6.900;2023-06-19T13:40:04;3.40;;;2.65;;
66567;SDS011;53422;49.296;6.900;2023-06-19T13:42:30;3.33;;;2.58;;
66567;SDS011;53422;49.296;6.900;2023-06-19T13:44:56;4.00;;;2.85;;
66567;SDS011;53422;49.296;6.900;2023-06-19T13:47:22;3.80;;;3.15;;
66567;SDS011;53422;49.296;6.900;2023-06-19T13:49:56;3.40;;;3.00;;
66567;SDS011;53422;49.296;6.900;2023-06-19T13:52:21;3.60;;;2.25;;
66567;SDS011;53422;49.296;6.900;2023-06-19T13:54:47;4.32;;;3.10;;
66567;SDS011;53422;49.296;6.900;2023-06-19T13:57:13;4.25;;;3.05;;
66567;SDS011;53422;49.296;6.900;2023-06-19T13:59:39;5.68;;;3.20;;
66567;SDS011;53422;49.296;6.900;2023-06-19T14:02:04;4.85;;;3.05;;
66567;SDS011;53422;49.296;6.900;2023-06-19T14:04:30;3.53;;;2.50;;
66567;SDS011;53422;49.296;6.900;2023-06-19T14:06:56;4.00;;;2.92;;
66567;SDS011;53422;49.296;6.900;2023-06-19T14:09:22;4.65;;;3.40;;
66567;SDS011;53422;49.296;6.900;2023-06-19T14:11:47;4.45;;;2.78;;
66567;SDS011;53422;49.296;6.900;2023-06-19T14:14:13;4.07;;;2.88;;
66567;SDS011;53422;49.296;6.900;2023-06-19T14:16:41;4.68;;;3.20;;
66567;SDS011;53422;49.296;6.900;2023-06-19T14:19:07;4.75;;;3.17;;
66567;SDS011;53422;49.296;6.900;2023-06-19T14:21:33;4.03;;;3.00;;
66567;SDS011;53422;49.296;6.900;2023-06-19T14:23:58;3.95;;;3.08;;
66567;SDS011;53422;49.296;6.900;2023-06-19T14:26:27;5.13;;;3.28;;
66567;SDS011;53422;49.296;6.900;2023-06-19T14:28:52;4.82;;;3.20;;
66567;SDS011;53422;49.296;6.900;2023-06-19T14:31:24;4.43;;;2.92;;
66567;SDS011;53422;49.296;6.900;2023-06-19T14:33:50;5.38;;;2.80;;
66567;SDS011;53422;49.296;6.900;2023-06-19T14:36:15;5.13;;;4.05;;
66567;SDS011;53422;49.296;6.900;2023-06-19T14:38:41;3.78;;;2.63;;
66567;SDS011;53422;49.296;6.900;2023-06-19T14:41:07;4.95;;;3.42;;
66567;SDS011;53422;49.296;6.900;2023-06-19T14:43:33;4.60;;;3.30;;
66567;SDS011;53422;49.296;6.900;2023-06-19T14:46:00;5.30;;;2.80;;
66567;SDS011;53422;49.296;6.900;2023-06-19T14:48:26;5.65;;;3.25;;
66567;SDS011;53422;49.296;6.900;2023-06-19T14:50:55;5.00;;;3.30;;
66567;SDS011;53422;49.296;6.900;2023-06-19T14:53:20;4.88;;;3.10;;
66567;SDS011;53422;49.296;6.900;2023-06-19T14:55:46;4.57;;;2.97;;
66567;SDS011;53422;49.296;6.900;2023-06-19T14:58:13;4.10;;;2.67;;
66567;SDS011;53422;49.296;6.900;2023-06-19T15:00:41;4.40;;;2.88;;
66567;SDS011;53422;49.296;6.900;2023-06-19T15:03:07;4.28;;;3.30;;
66567;SDS011;53422;49.296;6.900;2023-06-19T15:05:33;6.20;;;3.08;;
66567;SDS011;53422;49.296;6.900;2023-06-19T15:07:59;5.00;;;3.28;;
66567;SDS011;53422;49.296;6.900;2023-06-19T15:10:26;3.60;;;2.78;;
66567;SDS011;53422;49.296;6.900;2023-06-19T15:12:52;5.10;;;2.72;;
66567;SDS011;53422;49.296;6.900;2023-06-19T15:15:18;4.45;;;3.00;;